Terminal Aerodrome Forecast
Issued by NWS Raleigh/Durham, NC

Home | Current Version | Previous Version | Text Only | Print | Product List | Glossary On
Versions: 1 2 3 4 5 6 7 8 9 10 11 12 13 14 15 16 17 18 19 20 21 22 23 24 25 26 27 28 29 30 31 32
000
FTUS42 KRAH 022102 AAB
TAFFAY
TAF AMD
KFAY 022102Z 0221/0318 22009KT P6SM VCSH SCT050
      TEMPO 0221/0222 VRB15G30KT 2SM TSRA BR BKN018CB
     FM030000 19006KT P6SM SCT250
     FM030800 22005KT P6SM SCT006 SCT150=

USA.gov is the U.S. government's official web portal to all federal, state and local government web resources and services.